createdAt,value
2023-05-04T00:01:28.632Z,101556.00
2023-05-04T00:04:01.611Z,101563.00
2023-05-04T00:06:34.962Z,101555.00
2023-05-04T00:09:11.197Z,101560.00
2023-05-04T00:11:44.438Z,101543.00
2023-05-04T00:14:17.347Z,101554.00
2023-05-04T00:16:50.500Z,101560.00
2023-05-04T00:19:23.416Z,101545.00
2023-05-04T00:21:56.250Z,101545.00
2023-05-04T00:24:29.177Z,101532.00
2023-05-04T00:27:01.996Z,101543.00
2023-05-04T00:29:34.840Z,101532.00
2023-05-04T00:32:07.736Z,101532.00
2023-05-04T00:34:40.592Z,101530.00
2023-05-04T00:37:13.659Z,101516.00
2023-05-04T00:39:46.503Z,101529.00
2023-05-04T00:42:19.488Z,101525.00
2023-05-04T00:44:52.596Z,101530.00
2023-05-04T00:47:26.617Z,101530.00
2023-05-04T00:49:59.386Z,101524.00
2023-05-04T00:52:32.856Z,101536.00
2023-05-04T00:55:05.880Z,101540.00
2023-05-04T00:57:39.022Z,101531.00
2023-05-04T01:00:13.919Z,101534.00
2023-05-04T01:02:47.005Z,101530.00
2023-05-04T01:05:20.034Z,101530.00
2023-05-04T01:10:48.984Z,101511.00
2023-05-04T01:13:27.896Z,101538.00
2023-05-04T01:16:01.174Z,101520.00
2023-05-04T01:18:34.094Z,101499.00
2023-05-04T01:21:07.116Z,101508.00
2023-05-04T01:23:40.055Z,101507.00
2023-05-04T01:26:17.398Z,101499.00
2023-05-04T01:28:52.608Z,101509.00
2023-05-04T01:31:27.073Z,101502.00
2023-05-04T01:34:00.206Z,101512.00
2023-05-04T01:36:34.096Z,101503.00
2023-05-04T01:39:08.161Z,101500.00
2023-05-04T01:41:41.349Z,101513.00
2023-05-04T01:44:14.715Z,101512.00
2023-05-04T01:46:47.796Z,101505.00
2023-05-04T01:49:24.282Z,101508.00
2023-05-04T01:51:57.189Z,101516.00
2023-05-04T01:54:30.129Z,101504.00
2023-05-04T01:57:03.847Z,101515.00
2023-05-04T01:59:36.958Z,101508.00
2023-05-04T02:02:10.048Z,101494.00
2023-05-04T02:04:43.295Z,101509.00
2023-05-04T02:07:16.148Z,101500.00
2023-05-04T02:09:49.057Z,101497.00
2023-05-04T02:12:22.148Z,101497.00
2023-05-04T02:14:55.047Z,101501.00
2023-05-04T02:17:27.917Z,101503.00
2023-05-04T02:20:00.823Z,101498.00
2023-05-04T02:22:33.656Z,101496.00
2023-05-04T02:25:06.485Z,101495.00
2023-05-04T02:27:39.451Z,101494.00
2023-05-04T02:30:13.074Z,101502.00
2023-05-04T02:32:45.940Z,101497.00
2023-05-04T02:35:22.355Z,101515.00
2023-05-04T02:37:55.378Z,101507.00
2023-05-04T02:40:28.491Z,101514.00
2023-05-04T02:43:02.875Z,101514.00
2023-05-04T02:45:35.760Z,101524.00
2023-05-04T02:48:09.905Z,101530.00
2023-05-04T02:50:42.642Z,101508.00
2023-05-04T02:53:15.913Z,101533.00
2023-05-04T02:55:49.063Z,101524.00
2023-05-04T02:58:22.178Z,101530.00
2023-05-04T03:00:58.662Z,101528.00
2023-05-04T03:03:31.772Z,101529.00
2023-05-04T03:06:05.823Z,101525.00
2023-05-04T03:08:38.451Z,101538.00
2023-05-04T03:11:11.206Z,101531.00
2023-05-04T03:13:44.013Z,101542.00
2023-05-04T03:16:16.830Z,101529.00
2023-05-04T03:21:38.339Z,101544.00
2023-05-04T03:24:11.669Z,101546.00
2023-05-04T03:26:44.305Z,101547.00
2023-05-04T03:29:17.252Z,101553.00
2023-05-04T03:31:50.155Z,101556.00
2023-05-04T03:34:23.478Z,101566.00
2023-05-04T03:36:56.549Z,101568.00
2023-05-04T03:39:29.424Z,101581.00
2023-05-04T03:42:02.827Z,101569.00
2023-05-04T03:44:35.647Z,101578.00
2023-05-04T03:47:08.806Z,101590.00
2023-05-04T03:49:42.605Z,101582.00
2023-05-04T03:52:15.476Z,101588.00
2023-05-04T03:54:48.264Z,101587.00
2023-05-04T03:57:21.033Z,101593.00
2023-05-04T03:59:57.839Z,101593.00
2023-05-04T04:02:30.348Z,101585.00
2023-05-04T04:05:03.320Z,101591.00
2023-05-04T04:07:35.896Z,101589.00
2023-05-04T04:10:09.002Z,101586.00
2023-05-04T04:12:41.882Z,101598.00
2023-05-04T04:15:15.146Z,101594.00
2023-05-04T04:17:48.055Z,101597.00
2023-05-04T04:20:20.993Z,101587.00
2023-05-04T04:22:53.793Z,101595.00
2023-05-04T04:25:34.926Z,101592.00
2023-05-04T04:28:08.244Z,101605.00
2023-05-04T04:30:41.225Z,101591.00
2023-05-04T04:33:14.164Z,101597.00
2023-05-04T04:35:47.315Z,101602.00
2023-05-04T04:38:20.425Z,101605.00
2023-05-04T04:40:53.367Z,101614.00
2023-05-04T04:43:26.291Z,101629.00
2023-05-04T04:45:58.994Z,101614.00
2023-05-04T04:48:32.377Z,101620.00
2023-05-04T04:51:05.546Z,101620.00
2023-05-04T04:53:44.608Z,101615.00
2023-05-04T04:56:19.022Z,101624.00
2023-05-04T04:58:52.751Z,101627.00
2023-05-04T05:01:25.699Z,101628.00
2023-05-04T05:03:58.576Z,101633.00
2023-05-04T05:06:31.660Z,101626.00
2023-05-04T05:09:07.092Z,101637.00
2023-05-04T05:11:40.069Z,101639.00
2023-05-04T05:14:13.198Z,101635.00
2023-05-04T05:16:46.094Z,101628.00
2023-05-04T05:19:19.141Z,101627.00
2023-05-04T05:21:52.049Z,101632.00
2023-05-04T05:24:24.931Z,101632.00
2023-05-04T05:26:58.051Z,101639.00
2023-05-04T05:29:31.028Z,101650.00
2023-05-04T05:32:03.832Z,101653.00
2023-05-04T05:34:36.830Z,101647.00
2023-05-04T05:37:09.744Z,101655.00
2023-05-04T05:39:42.598Z,101648.00
2023-05-04T05:42:15.640Z,101663.00
2023-05-04T05:44:48.466Z,101663.00
2023-05-04T05:47:21.390Z,101673.00
2023-05-04T05:49:54.583Z,101663.00
2023-05-04T05:52:28.085Z,101668.00
2023-05-04T05:55:02.601Z,101664.00
2023-05-04T05:57:37.277Z,101674.00
2023-05-04T06:00:11.164Z,101684.00
2023-05-04T06:02:44.191Z,101683.00
2023-05-04T06:05:17.346Z,101682.00
2023-05-04T06:07:50.286Z,101682.00
2023-05-04T06:10:23.217Z,101682.00
2023-05-04T06:12:56.480Z,101685.00
2023-05-04T06:15:29.230Z,101691.00
2023-05-04T06:18:02.256Z,101685.00
2023-05-04T06:20:35.185Z,101696.00
2023-05-04T06:23:08.196Z,101699.00
2023-05-04T06:25:42.243Z,101708.00
2023-05-04T06:28:15.152Z,101717.00
2023-05-04T06:30:49.888Z,101726.00
2023-05-04T06:33:22.995Z,101720.00
2023-05-04T06:35:56.884Z,101737.00
2023-05-04T06:38:29.868Z,101727.00
2023-05-04T06:41:02.946Z,101733.00
2023-05-04T06:43:36.615Z,101735.00
2023-05-04T06:46:09.654Z,101751.00
2023-05-04T06:48:42.538Z,101746.00
2023-05-04T06:51:15.895Z,101749.00
2023-05-04T06:53:49.312Z,101740.00
2023-05-04T06:56:24.428Z,101742.00
2023-05-04T06:58:57.186Z,101736.00
2023-05-04T07:01:30.301Z,101742.00
2023-05-04T07:04:03.154Z,101734.00
2023-05-04T07:06:36.126Z,101747.00
2023-05-04T07:09:10.168Z,101736.00
2023-05-04T07:11:43.347Z,101741.00
2023-05-04T07:14:16.301Z,101737.00
2023-05-04T07:16:49.249Z,101735.00
2023-05-04T07:19:22.345Z,101751.00
2023-05-04T07:21:55.190Z,101745.00
2023-05-04T07:24:28.040Z,101749.00
2023-05-04T07:27:01.190Z,101746.00
2023-05-04T07:29:34.066Z,101741.00
2023-05-04T07:32:07.003Z,101739.00
2023-05-04T07:34:46.029Z,101752.00
2023-05-04T07:37:18.084Z,101756.00
2023-05-04T07:39:50.953Z,101764.00
2023-05-04T07:42:25.041Z,101761.00
2023-05-04T07:44:58.888Z,101748.00
2023-05-04T07:47:32.588Z,101759.00
2023-05-04T07:50:05.865Z,101751.00
2023-05-04T07:52:38.912Z,101740.00
2023-05-04T07:55:13.338Z,101748.00
2023-05-04T07:57:46.378Z,101751.00
2023-05-04T08:00:20.306Z,101735.00
2023-05-04T08:02:52.928Z,101748.00
2023-05-04T08:05:25.692Z,101742.00
2023-05-04T08:08:00.422Z,101730.00
2023-05-04T08:10:32.766Z,101728.00
2023-05-04T08:13:10.171Z,101722.00
2023-05-04T08:15:43.175Z,101722.00
2023-05-04T08:18:16.143Z,101699.00
2023-05-04T08:20:49.279Z,101724.00
2023-05-04T08:23:22.197Z,101730.00
2023-05-04T08:25:55.047Z,101742.00
2023-05-04T08:28:27.835Z,101746.00
2023-05-04T08:31:00.799Z,101751.00
2023-05-04T08:33:33.878Z,101747.00
2023-05-04T08:36:07.335Z,101757.00
2023-05-04T08:38:40.161Z,101748.00
2023-05-04T08:41:13.684Z,101748.00
2023-05-04T08:43:47.611Z,101764.00
2023-05-04T08:46:21.382Z,101766.00
2023-05-04T08:48:54.979Z,101766.00
2023-05-04T08:51:29.341Z,101783.00
2023-05-04T08:54:04.413Z,101789.00
2023-05-04T08:56:38.428Z,101775.00
2023-05-04T08:59:13.066Z,101785.00
2023-05-04T09:01:46.533Z,101791.00
2023-05-04T09:04:20.252Z,101790.00
2023-05-04T09:06:53.656Z,101789.00
2023-05-04T09:09:30.229Z,101782.00
2023-05-04T09:12:14.548Z,101787.00
2023-05-04T09:14:48.289Z,101786.00
2023-05-04T09:17:30.342Z,101778.00
2023-05-04T09:20:07.936Z,101787.00
2023-05-04T09:22:41.318Z,101790.00
2023-05-04T09:25:18.048Z,101797.00
2023-05-04T09:27:52.881Z,101817.00
2023-05-04T09:30:26.289Z,101812.00
2023-05-04T09:32:59.161Z,101788.00
2023-05-04T09:35:35.283Z,101795.00
2023-05-04T09:38:09.247Z,101806.00
2023-05-04T09:40:45.974Z,101807.00
2023-05-04T09:43:19.436Z,101794.00
2023-05-04T09:45:53.216Z,101793.00
2023-05-04T09:48:31.561Z,101798.00
2023-05-04T09:51:06.081Z,101793.00
2023-05-04T09:53:40.880Z,101798.00
2023-05-04T09:56:32.295Z,101795.00
2023-05-04T09:59:06.923Z,101794.00
2023-05-04T10:01:44.796Z,101786.00
2023-05-04T10:04:16.858Z,101790.00
2023-05-04T10:06:49.967Z,101786.00
2023-05-04T10:09:23.383Z,101792.00
2023-05-04T10:11:56.432Z,101790.00
2023-05-04T10:14:29.582Z,101787.00
2023-05-04T10:17:27.656Z,101792.00
2023-05-04T10:20:11.894Z,101792.00
2023-05-04T10:23:01.516Z,101791.00
2023-05-04T10:25:51.528Z,101803.00
2023-05-04T10:28:35.788Z,101808.00
2023-05-04T10:31:12.725Z,101800.00
2023-05-04T10:33:46.200Z,101802.00
2023-05-04T10:36:19.654Z,101797.00
2023-05-04T10:38:52.807Z,101793.00
2023-05-04T10:41:28.708Z,101804.00
2023-05-04T10:44:11.925Z,101798.00
2023-05-04T10:46:44.636Z,101797.00
2023-05-04T10:49:20.885Z,101795.00
2023-05-04T10:51:54.176Z,101794.00
2023-05-04T10:54:27.777Z,101792.00
2023-05-04T10:57:09.283Z,101800.00
2023-05-04T10:59:42.628Z,101797.00
2023-05-04T11:02:17.126Z,101789.00
2023-05-04T11:04:50.030Z,101787.00
2023-05-04T11:07:23.633Z,101791.00
2023-05-04T11:09:56.610Z,101790.00
2023-05-04T11:12:30.268Z,101793.00
2023-05-04T11:15:10.232Z,101784.00
2023-05-04T11:17:53.337Z,101791.00
2023-05-04T11:20:27.059Z,101784.00
2023-05-04T11:23:00.117Z,101785.00
2023-05-04T11:25:34.149Z,101778.00
2023-05-04T11:28:07.468Z,101786.00
2023-05-04T11:30:40.407Z,101787.00
2023-05-04T11:33:18.125Z,101795.00
2023-05-04T11:35:51.054Z,101788.00
2023-05-04T11:38:24.248Z,101785.00
2023-05-04T11:40:57.539Z,101786.00
2023-05-04T11:43:30.541Z,101773.00
2023-05-04T11:46:04.698Z,101776.00
2023-05-04T11:48:39.328Z,101783.00
2023-05-04T11:51:12.310Z,101785.00
2023-05-04T11:53:45.478Z,101790.00
2023-05-04T11:56:21.088Z,101788.00
2023-05-04T11:58:54.515Z,101781.00
2023-05-04T12:01:27.578Z,101792.00
2023-05-04T12:04:00.827Z,101790.00
2023-05-04T12:06:37.930Z,101794.00
2023-05-04T12:09:10.792Z,101791.00
2023-05-04T12:11:43.717Z,101799.00
2023-05-04T12:14:19.865Z,101790.00
2023-05-04T12:17:01.249Z,101785.00
2023-05-04T12:19:34.777Z,101787.00
2023-05-04T12:22:08.026Z,101789.00
2023-05-04T12:24:41.641Z,101783.00
2023-05-04T12:27:20.425Z,101783.00
2023-05-04T12:29:53.552Z,101777.00
2023-05-04T12:32:26.647Z,101773.00
2023-05-04T12:34:59.450Z,101776.00
2023-05-04T12:37:32.551Z,101761.00
2023-05-04T12:40:11.342Z,101768.00
2023-05-04T12:42:39.647Z,101770.00
2023-05-04T12:45:13.484Z,101759.00
2023-05-04T12:47:46.748Z,101772.00
2023-05-04T12:50:20.116Z,101768.00
2023-05-04T12:52:53.439Z,101768.00
2023-05-04T12:55:26.587Z,101765.00
2023-05-04T12:57:59.779Z,101764.00
2023-05-04T13:00:37.311Z,101768.00
2023-05-04T13:03:14.243Z,101763.00
2023-05-04T13:05:47.222Z,101768.00
2023-05-04T13:08:21.729Z,101758.00
2023-05-04T13:10:55.465Z,101764.00
2023-05-04T13:13:33.996Z,101764.00
2023-05-04T13:16:07.792Z,101761.00
2023-05-04T13:18:40.645Z,101760.00
2023-05-04T13:21:13.656Z,101768.00
2023-05-04T13:23:46.531Z,101758.00
2023-05-04T13:26:19.647Z,101768.00
2023-05-04T13:28:53.766Z,101771.00
2023-05-04T13:31:27.285Z,101778.00
2023-05-04T13:34:00.194Z,101761.00
2023-05-04T13:36:33.138Z,101780.00
2023-05-04T13:39:06.245Z,101770.00
2023-05-04T13:41:39.398Z,101769.00
2023-05-04T13:44:12.201Z,101769.00
2023-05-04T13:46:45.442Z,101764.00
2023-05-04T13:49:18.172Z,101763.00
2023-05-04T13:51:50.984Z,101772.00
2023-05-04T13:54:24.242Z,101772.00
2023-05-04T13:56:57.459Z,101767.00
2023-05-04T13:59:30.851Z,101771.00
2023-05-04T14:02:03.871Z,101774.00
2023-05-04T14:04:39.098Z,101768.00
2023-05-04T14:07:11.941Z,101763.00
2023-05-04T14:09:44.778Z,101760.00
2023-05-04T14:12:17.716Z,101763.00
2023-05-04T14:14:50.915Z,101750.00
2023-05-04T14:17:24.568Z,101759.00
2023-05-04T14:19:57.193Z,101755.00
2023-05-04T14:22:30.139Z,101755.00
2023-05-04T14:25:03.320Z,101756.00
2023-05-04T14:27:37.311Z,101748.00
2023-05-04T14:30:11.422Z,101745.00
2023-05-04T14:32:44.891Z,101742.00
2023-05-04T14:35:19.061Z,101753.00
2023-05-04T14:37:55.127Z,101737.00
2023-05-04T14:40:28.270Z,101737.00
2023-05-04T14:43:02.565Z,101739.00
2023-05-04T14:45:41.295Z,101727.00
2023-05-04T14:48:14.464Z,101736.00
2023-05-04T14:50:47.542Z,101721.00
2023-05-04T14:53:20.678Z,101723.00
2023-05-04T14:55:54.030Z,101722.00
2023-05-04T14:58:27.460Z,101699.00
2023-05-04T15:01:00.708Z,101711.00
2023-05-04T15:03:33.618Z,101708.00
2023-05-04T15:06:06.909Z,101702.00
2023-05-04T15:08:39.696Z,101704.00
2023-05-04T15:11:12.593Z,101708.00
2023-05-04T15:13:46.684Z,101713.00
2023-05-04T15:16:22.770Z,101705.00
2023-05-04T15:18:55.860Z,101700.00
2023-05-04T15:21:29.737Z,101698.00
2023-05-04T15:24:02.473Z,101701.00
2023-05-04T15:26:36.408Z,101692.00
2023-05-04T15:29:09.263Z,101700.00
2023-05-04T15:31:42.958Z,101693.00
2023-05-04T15:34:18.143Z,101694.00
2023-05-04T15:36:50.182Z,101691.00
2023-05-04T15:39:27.083Z,101691.00
2023-05-04T15:41:59.976Z,101692.00
2023-05-04T15:44:34.017Z,101695.00
2023-05-04T15:47:08.285Z,101700.00
2023-05-04T15:49:41.573Z,101710.00
2023-05-04T15:52:19.016Z,101706.00
2023-05-04T15:54:51.830Z,101707.00
2023-05-04T15:57:25.000Z,101697.00
2023-05-04T15:59:57.845Z,101705.00
2023-05-04T16:02:31.256Z,101700.00
2023-05-04T16:05:04.050Z,101704.00
2023-05-04T16:07:37.097Z,101710.00
2023-05-04T16:10:11.238Z,101702.00
2023-05-04T16:12:44.115Z,101698.00
2023-05-04T16:15:17.316Z,101692.00
2023-05-04T16:17:50.348Z,101685.00
2023-05-04T16:20:23.479Z,101689.00
2023-05-04T16:22:56.458Z,101699.00
2023-05-04T16:25:29.256Z,101686.00
2023-05-04T16:28:06.528Z,101697.00
2023-05-04T16:30:39.646Z,101700.00
2023-05-04T16:33:12.499Z,101692.00
2023-05-04T16:35:45.505Z,101692.00
2023-05-04T16:38:18.883Z,101701.00
2023-05-04T16:40:52.484Z,101690.00
2023-05-04T16:43:25.961Z,101697.00
2023-05-04T16:45:59.057Z,101701.00
2023-05-04T16:48:32.653Z,101702.00
2023-05-04T16:51:05.870Z,101710.00
2023-05-04T16:53:39.195Z,101706.00
2023-05-04T16:56:12.657Z,101708.00
2023-05-04T16:58:45.883Z,101705.00
2023-05-04T17:01:19.388Z,101710.00
2023-05-04T17:03:52.908Z,101706.00
2023-05-04T17:06:26.077Z,101696.00
2023-05-04T17:08:59.208Z,101698.00
2023-05-04T17:11:32.140Z,101711.00
2023-05-04T17:14:09.847Z,101692.00
2023-05-04T17:16:43.121Z,101701.00
2023-05-04T17:19:16.254Z,101701.00
2023-05-04T17:21:49.103Z,101705.00
2023-05-04T17:24:22.258Z,101710.00
2023-05-04T17:26:55.380Z,101710.00
2023-05-04T17:29:28.146Z,101703.00
2023-05-04T17:32:04.554Z,101703.00
2023-05-04T17:34:41.556Z,101695.00
2023-05-04T17:37:14.679Z,101702.00
2023-05-04T17:39:48.923Z,101703.00
2023-05-04T17:42:22.025Z,101708.00
2023-05-04T17:44:55.278Z,101702.00
2023-05-04T17:47:28.199Z,101710.00
2023-05-04T17:50:02.284Z,101707.00
2023-05-04T17:52:35.071Z,101708.00
2023-05-04T17:55:08.202Z,101716.00
2023-05-04T17:57:41.239Z,101715.00
2023-05-04T18:00:15.356Z,101708.00
2023-05-04T18:02:48.410Z,101712.00
2023-05-04T18:05:21.425Z,101717.00
2023-05-04T18:07:54.414Z,101716.00
2023-05-04T18:10:27.605Z,101718.00
2023-05-04T18:13:02.032Z,101719.00
2023-05-04T18:15:35.191Z,101716.00
2023-05-04T18:18:08.107Z,101730.00
2023-05-04T18:20:41.190Z,101728.00
2023-05-04T18:23:14.134Z,101725.00
2023-05-04T18:25:51.480Z,101731.00
2023-05-04T18:28:24.741Z,101729.00
2023-05-04T18:30:57.723Z,101721.00
2023-05-04T18:33:30.714Z,101719.00
2023-05-04T18:36:03.631Z,101721.00
2023-05-04T18:38:38.003Z,101713.00
2023-05-04T18:41:11.024Z,101723.00
2023-05-04T18:43:43.874Z,101724.00
2023-05-04T18:46:16.880Z,101708.00
2023-05-04T18:48:49.965Z,101721.00
2023-05-04T18:51:22.930Z,101723.00
2023-05-04T18:53:55.890Z,101724.00
2023-05-04T18:56:29.353Z,101723.00
2023-05-04T18:59:02.056Z,101735.00
2023-05-04T19:01:35.043Z,101732.00
2023-05-04T19:04:08.117Z,101722.00
2023-05-04T19:06:40.962Z,101740.00
2023-05-04T19:09:15.322Z,101744.00
2023-05-04T19:12:11.597Z,101742.00
2023-05-04T19:14:45.709Z,101736.00
2023-05-04T19:17:19.282Z,101729.00
2023-05-04T19:19:52.222Z,101719.00
2023-05-04T19:22:25.843Z,101738.00
2023-05-04T19:24:58.681Z,101739.00
2023-05-04T19:27:31.755Z,101747.00
2023-05-04T19:30:04.949Z,101727.00
2023-05-04T19:32:39.272Z,101751.00
2023-05-04T19:35:12.519Z,101746.00
2023-05-04T19:37:45.448Z,101756.00
2023-05-04T19:40:18.313Z,101769.00
2023-05-04T19:42:51.089Z,101762.00
2023-05-04T19:45:24.071Z,101759.00
2023-05-04T19:47:56.846Z,101757.00
2023-05-04T19:50:29.792Z,101763.00
2023-05-04T19:53:05.657Z,101763.00
2023-05-04T19:55:39.254Z,101756.00
2023-05-04T19:58:12.649Z,101785.00
2023-05-04T20:00:46.015Z,101773.00
2023-05-04T20:03:19.893Z,101767.00
2023-05-04T20:05:54.240Z,101754.00
2023-05-04T20:08:27.109Z,101773.00
2023-05-04T20:10:59.908Z,101766.00
2023-05-04T20:13:32.838Z,101774.00
2023-05-04T20:16:11.641Z,101769.00
2023-05-04T20:18:44.528Z,101774.00
2023-05-04T20:21:17.563Z,101776.00
2023-05-04T20:23:50.421Z,101780.00
2023-05-04T20:26:24.481Z,101791.00
2023-05-04T20:28:57.549Z,101791.00
2023-05-04T20:31:32.131Z,101793.00
2023-05-04T20:34:04.491Z,101790.00
2023-05-04T20:36:37.405Z,101798.00
2023-05-04T20:39:10.639Z,101808.00
2023-05-04T20:41:43.591Z,101804.00
2023-05-04T20:44:16.700Z,101805.00
2023-05-04T20:46:49.550Z,101818.00
2023-05-04T20:49:22.714Z,101802.00
2023-05-04T20:51:55.734Z,101806.00
2023-05-04T20:54:28.653Z,101815.00
2023-05-04T20:57:01.842Z,101812.00
2023-05-04T20:59:35.426Z,101809.00
2023-05-04T21:02:08.356Z,101789.00
2023-05-04T21:04:42.009Z,101800.00
2023-05-04T21:07:15.013Z,101806.00
2023-05-04T21:09:47.844Z,101800.00
2023-05-04T21:12:20.968Z,101814.00
2023-05-04T21:14:53.827Z,101797.00
2023-05-04T21:17:27.505Z,101796.00
2023-05-04T21:20:00.648Z,101797.00
2023-05-04T21:22:33.541Z,101808.00
2023-05-04T21:25:07.196Z,101806.00
2023-05-04T21:27:45.423Z,101799.00
2023-05-04T21:30:18.355Z,101794.00
2023-05-04T21:32:50.994Z,101796.00
2023-05-04T21:35:24.107Z,101794.00
2023-05-04T21:37:57.178Z,101796.00
2023-05-04T21:40:39.943Z,101799.00
2023-05-04T21:43:12.803Z,101789.00
2023-05-04T21:45:45.711Z,101796.00
2023-05-04T21:48:18.607Z,101785.00
2023-05-04T21:50:51.559Z,101792.00
2023-05-04T21:53:24.710Z,101798.00
2023-05-04T21:55:57.894Z,101785.00
2023-05-04T21:58:30.551Z,101775.00
2023-05-04T22:01:03.501Z,101768.00
2023-05-04T22:03:36.551Z,101775.00
2023-05-04T22:06:10.538Z,101784.00
2023-05-04T22:08:44.136Z,101784.00
2023-05-04T22:11:17.180Z,101794.00
2023-05-04T22:13:53.821Z,101795.00
2023-05-04T22:16:27.858Z,101801.00
2023-05-04T22:19:01.808Z,101791.00
2023-05-04T22:21:36.826Z,101792.00
2023-05-04T22:24:10.402Z,101777.00
2023-05-04T22:26:43.216Z,101796.00
2023-05-04T22:29:16.058Z,101782.00
2023-05-04T22:31:49.473Z,101795.00
2023-05-04T22:34:22.917Z,101781.00
2023-05-04T22:36:56.018Z,101778.00
2023-05-04T22:39:29.132Z,101794.00
2023-05-04T22:42:01.877Z,101780.00
2023-05-04T22:44:38.936Z,101778.00
2023-05-04T22:47:16.037Z,101781.00
2023-05-04T22:49:48.959Z,101772.00
2023-05-04T22:52:21.784Z,101766.00
2023-05-04T22:54:54.932Z,101786.00
2023-05-04T22:57:28.088Z,101770.00
2023-05-04T23:00:01.096Z,101770.00
2023-05-04T23:02:37.890Z,101753.00
2023-05-04T23:05:11.704Z,101748.00
2023-05-04T23:07:45.531Z,101753.00
2023-05-04T23:10:18.622Z,101787.00
2023-05-04T23:12:51.561Z,101794.00
2023-05-04T23:15:25.603Z,101789.00
2023-05-04T23:17:58.853Z,101804.00
2023-05-04T23:20:31.632Z,101796.00
2023-05-04T23:23:05.108Z,101793.00
2023-05-04T23:25:38.371Z,101787.00
2023-05-04T23:28:11.112Z,101791.00
2023-05-04T23:30:44.043Z,101789.00
2023-05-04T23:33:16.913Z,101789.00
2023-05-04T23:35:49.859Z,101783.00
2023-05-04T23:38:22.647Z,101774.00
2023-05-04T23:40:55.926Z,101772.00
2023-05-04T23:43:28.665Z,101766.00
2023-05-04T23:46:05.420Z,101774.00
2023-05-04T23:48:38.393Z,101772.00
2023-05-04T23:51:11.380Z,101762.00
2023-05-04T23:53:44.331Z,101760.00
2023-05-04T23:56:19.652Z,101747.00
2023-05-04T23:58:52.517Z,101754.00
